sensor_id;sensor_type;location;lat;lon;timestamp;P1;durP1;ratioP1;P2;durP2;ratioP2
78740;SDS011;68062;48.726;9.370;2023-03-04T00:01:49;34.70;;;19.50;;
78740;SDS011;68062;48.726;9.370;2023-03-04T00:04:15;37.43;;;20.67;;
78740;SDS011;68062;48.726;9.370;2023-03-04T00:06:42;37.47;;;20.83;;
78740;SDS011;68062;48.726;9.370;2023-03-04T00:09:10;32.70;;;19.60;;
78740;SDS011;68062;48.726;9.370;2023-03-04T00:11:36;34.40;;;19.70;;
78740;SDS011;68062;48.726;9.370;2023-03-04T00:14:03;37.93;;;20.23;;
78740;SDS011;68062;48.726;9.370;2023-03-04T00:16:29;32.50;;;20.03;;
78740;SDS011;68062;48.726;9.370;2023-03-04T00:18:56;33.63;;;19.93;;
78740;SDS011;68062;48.726;9.370;2023-03-04T00:21:23;34.97;;;20.53;;
78740;SDS011;68062;48.726;9.370;2023-03-04T00:23:49;34.50;;;20.60;;
78740;SDS011;68062;48.726;9.370;2023-03-04T00:26:18;34.47;;;18.80;;
78740;SDS011;68062;48.726;9.370;2023-03-04T00:28:44;36.23;;;18.73;;
78740;SDS011;68062;48.726;9.370;2023-03-04T00:31:10;30.07;;;18.93;;
78740;SDS011;68062;48.726;9.370;2023-03-04T00:33:37;35.27;;;19.90;;
78740;SDS011;68062;48.726;9.370;2023-03-04T00:36:04;34.67;;;22.73;;
78740;SDS011;68062;48.726;9.370;2023-03-04T00:38:31;36.47;;;22.53;;
78740;SDS011;68062;48.726;9.370;2023-03-04T00:40:58;41.33;;;20.37;;
78740;SDS011;68062;48.726;9.370;2023-03-04T00:43:26;38.50;;;21.47;;
78740;SDS011;68062;48.726;9.370;2023-03-04T00:45:53;36.63;;;20.97;;
78740;SDS011;68062;48.726;9.370;2023-03-04T00:48:20;30.40;;;20.30;;
78740;SDS011;68062;48.726;9.370;2023-03-04T00:50:47;38.70;;;20.57;;
78740;SDS011;68062;48.726;9.370;2023-03-04T00:53:15;32.70;;;20.10;;
78740;SDS011;68062;48.726;9.370;2023-03-04T00:55:42;36.13;;;20.90;;
78740;SDS011;68062;48.726;9.370;2023-03-04T00:58:08;29.40;;;18.63;;
78740;SDS011;68062;48.726;9.370;2023-03-04T01:00:36;35.80;;;21.80;;
78740;SDS011;68062;48.726;9.370;2023-03-04T01:03:02;37.37;;;19.47;;
78740;SDS011;68062;48.726;9.370;2023-03-04T01:05:29;31.33;;;20.77;;
78740;SDS011;68062;48.726;9.370;2023-03-04T01:07:56;29.50;;;20.03;;
78740;SDS011;68062;48.726;9.370;2023-03-04T01:10:22;36.93;;;21.27;;
78740;SDS011;68062;48.726;9.370;2023-03-04T01:12:49;34.73;;;18.33;;
78740;SDS011;68062;48.726;9.370;2023-03-04T01:15:15;34.77;;;22.10;;
78740;SDS011;68062;48.726;9.370;2023-03-04T01:17:43;35.43;;;20.57;;
78740;SDS011;68062;48.726;9.370;2023-03-04T01:20:10;35.53;;;20.57;;
78740;SDS011;68062;48.726;9.370;2023-03-04T01:22:37;32.93;;;19.50;;
78740;SDS011;68062;48.726;9.370;2023-03-04T01:25:04;31.83;;;20.30;;
78740;SDS011;68062;48.726;9.370;2023-03-04T01:27:31;39.03;;;21.67;;
78740;SDS011;68062;48.726;9.370;2023-03-04T01:29:57;44.53;;;22.10;;
78740;SDS011;68062;48.726;9.370;2023-03-04T01:32:24;35.80;;;19.90;;
78740;SDS011;68062;48.726;9.370;2023-03-04T01:34:51;32.40;;;19.97;;
78740;SDS011;68062;48.726;9.370;2023-03-04T01:37:18;36.90;;;19.57;;
78740;SDS011;68062;48.726;9.370;2023-03-04T01:39:44;34.87;;;20.13;;
78740;SDS011;68062;48.726;9.370;2023-03-04T01:42:12;27.83;;;18.37;;
78740;SDS011;68062;48.726;9.370;2023-03-04T01:44:44;30.60;;;18.33;;
78740;SDS011;68062;48.726;9.370;2023-03-04T01:47:11;35.27;;;18.90;;
78740;SDS011;68062;48.726;9.370;2023-03-04T01:49:38;37.20;;;20.80;;
78740;SDS011;68062;48.726;9.370;2023-03-04T01:52:08;36.47;;;21.73;;
78740;SDS011;68062;48.726;9.370;2023-03-04T01:54:36;30.27;;;19.10;;
78740;SDS011;68062;48.726;9.370;2023-03-04T01:57:05;35.50;;;19.10;;
78740;SDS011;68062;48.726;9.370;2023-03-04T01:59:40;35.63;;;20.67;;
78740;SDS011;68062;48.726;9.370;2023-03-04T02:02:07;34.27;;;18.87;;
78740;SDS011;68062;48.726;9.370;2023-03-04T02:04:33;41.53;;;20.70;;
78740;SDS011;68062;48.726;9.370;2023-03-04T02:07:00;34.10;;;20.30;;
78740;SDS011;68062;48.726;9.370;2023-03-04T02:09:30;35.10;;;18.90;;
78740;SDS011;68062;48.726;9.370;2023-03-04T02:11:58;32.00;;;19.63;;
78740;SDS011;68062;48.726;9.370;2023-03-04T02:14:26;36.63;;;20.47;;
78740;SDS011;68062;48.726;9.370;2023-03-04T02:16:53;30.00;;;18.73;;
78740;SDS011;68062;48.726;9.370;2023-03-04T02:19:22;36.73;;;18.97;;
78740;SDS011;68062;48.726;9.370;2023-03-04T02:21:58;33.63;;;19.60;;
78740;SDS011;68062;48.726;9.370;2023-03-04T02:24:25;41.60;;;22.33;;
78740;SDS011;68062;48.726;9.370;2023-03-04T02:26:59;33.80;;;19.90;;
78740;SDS011;68062;48.726;9.370;2023-03-04T02:29:26;33.67;;;19.13;;
78740;SDS011;68062;48.726;9.370;2023-03-04T02:31:53;34.20;;;19.90;;
78740;SDS011;68062;48.726;9.370;2023-03-04T02:34:21;31.03;;;19.23;;
78740;SDS011;68062;48.726;9.370;2023-03-04T02:36:50;29.87;;;18.60;;
78740;SDS011;68062;48.726;9.370;2023-03-04T02:39:21;35.17;;;20.07;;
78740;SDS011;68062;48.726;9.370;2023-03-04T02:41:53;36.20;;;21.20;;
78740;SDS011;68062;48.726;9.370;2023-03-04T02:44:22;33.13;;;20.30;;
78740;SDS011;68062;48.726;9.370;2023-03-04T02:46:50;34.23;;;19.43;;
78740;SDS011;68062;48.726;9.370;2023-03-04T02:49:17;32.60;;;20.00;;
78740;SDS011;68062;48.726;9.370;2023-03-04T02:51:45;35.47;;;20.80;;
78740;SDS011;68062;48.726;9.370;2023-03-04T02:54:13;31.70;;;19.37;;
78740;SDS011;68062;48.726;9.370;2023-03-04T02:56:43;31.00;;;18.77;;
78740;SDS011;68062;48.726;9.370;2023-03-04T02:59:10;33.43;;;21.07;;
78740;SDS011;68062;48.726;9.370;2023-03-04T03:01:38;32.93;;;20.27;;
78740;SDS011;68062;48.726;9.370;2023-03-04T03:04:05;31.90;;;19.27;;
78740;SDS011;68062;48.726;9.370;2023-03-04T03:06:32;32.50;;;19.87;;
78740;SDS011;68062;48.726;9.370;2023-03-04T03:08:58;35.07;;;21.10;;
78740;SDS011;68062;48.726;9.370;2023-03-04T03:11:25;30.73;;;17.50;;
78740;SDS011;68062;48.726;9.370;2023-03-04T03:13:51;38.03;;;20.30;;
78740;SDS011;68062;48.726;9.370;2023-03-04T03:16:18;32.57;;;19.37;;
78740;SDS011;68062;48.726;9.370;2023-03-04T03:18:46;31.23;;;19.10;;
78740;SDS011;68062;48.726;9.370;2023-03-04T03:21:13;29.10;;;17.63;;
78740;SDS011;68062;48.726;9.370;2023-03-04T03:23:39;30.17;;;17.90;;
78740;SDS011;68062;48.726;9.370;2023-03-04T03:26:07;32.80;;;17.40;;
78740;SDS011;68062;48.726;9.370;2023-03-04T03:28:34;32.10;;;20.33;;
78740;SDS011;68062;48.726;9.370;2023-03-04T03:31:00;34.63;;;19.77;;
78740;SDS011;68062;48.726;9.370;2023-03-04T03:33:27;29.00;;;17.70;;
78740;SDS011;68062;48.726;9.370;2023-03-04T03:36:09;31.53;;;18.50;;
78740;SDS011;68062;48.726;9.370;2023-03-04T03:38:37;28.53;;;17.57;;
78740;SDS011;68062;48.726;9.370;2023-03-04T03:41:04;34.70;;;21.23;;
78740;SDS011;68062;48.726;9.370;2023-03-04T03:43:30;31.93;;;17.60;;
78740;SDS011;68062;48.726;9.370;2023-03-04T03:45:56;29.70;;;17.50;;
78740;SDS011;68062;48.726;9.370;2023-03-04T03:48:23;30.27;;;20.63;;
78740;SDS011;68062;48.726;9.370;2023-03-04T03:50:50;31.73;;;18.67;;
78740;SDS011;68062;48.726;9.370;2023-03-04T03:53:18;28.53;;;18.07;;
78740;SDS011;68062;48.726;9.370;2023-03-04T03:55:45;33.67;;;19.87;;
78740;SDS011;68062;48.726;9.370;2023-03-04T03:58:12;35.50;;;19.37;;
78740;SDS011;68062;48.726;9.370;2023-03-04T04:00:39;25.77;;;17.07;;
78740;SDS011;68062;48.726;9.370;2023-03-04T04:03:08;30.80;;;19.03;;
78740;SDS011;68062;48.726;9.370;2023-03-04T04:05:38;28.47;;;18.07;;
78740;SDS011;68062;48.726;9.370;2023-03-04T04:08:05;29.53;;;17.80;;
78740;SDS011;68062;48.726;9.370;2023-03-04T04:10:39;33.83;;;18.77;;
78740;SDS011;68062;48.726;9.370;2023-03-04T04:13:05;33.63;;;19.70;;
78740;SDS011;68062;48.726;9.370;2023-03-04T04:15:32;30.63;;;19.53;;
78740;SDS011;68062;48.726;9.370;2023-03-04T04:17:59;33.43;;;18.40;;
78740;SDS011;68062;48.726;9.370;2023-03-04T04:20:25;34.20;;;19.53;;
78740;SDS011;68062;48.726;9.370;2023-03-04T04:22:52;30.23;;;18.03;;
78740;SDS011;68062;48.726;9.370;2023-03-04T04:25:18;27.67;;;17.03;;
78740;SDS011;68062;48.726;9.370;2023-03-04T04:27:46;36.70;;;17.93;;
78740;SDS011;68062;48.726;9.370;2023-03-04T04:30:13;36.47;;;19.97;;
78740;SDS011;68062;48.726;9.370;2023-03-04T04:32:40;33.10;;;17.80;;
78740;SDS011;68062;48.726;9.370;2023-03-04T04:35:07;28.93;;;17.90;;
78740;SDS011;68062;48.726;9.370;2023-03-04T04:37:34;34.17;;;18.37;;
78740;SDS011;68062;48.726;9.370;2023-03-04T04:40:04;36.87;;;21.27;;
78740;SDS011;68062;48.726;9.370;2023-03-04T04:42:32;32.80;;;19.83;;
78740;SDS011;68062;48.726;9.370;2023-03-04T04:45:00;31.17;;;19.10;;
78740;SDS011;68062;48.726;9.370;2023-03-04T04:47:27;32.90;;;17.93;;
78740;SDS011;68062;48.726;9.370;2023-03-04T04:49:54;31.27;;;18.97;;
78740;SDS011;68062;48.726;9.370;2023-03-04T04:52:20;30.57;;;20.03;;
78740;SDS011;68062;48.726;9.370;2023-03-04T04:54:47;29.97;;;18.37;;
78740;SDS011;68062;48.726;9.370;2023-03-04T04:57:14;36.57;;;19.40;;
78740;SDS011;68062;48.726;9.370;2023-03-04T04:59:41;30.37;;;17.80;;
78740;SDS011;68062;48.726;9.370;2023-03-04T05:02:13;30.10;;;19.33;;
78740;SDS011;68062;48.726;9.370;2023-03-04T05:04:42;32.63;;;19.23;;
78740;SDS011;68062;48.726;9.370;2023-03-04T05:07:09;30.23;;;18.83;;
78740;SDS011;68062;48.726;9.370;2023-03-04T05:09:37;27.93;;;18.60;;
78740;SDS011;68062;48.726;9.370;2023-03-04T05:12:20;31.83;;;18.37;;
78740;SDS011;68062;48.726;9.370;2023-03-04T05:14:48;34.30;;;17.47;;
78740;SDS011;68062;48.726;9.370;2023-03-04T05:20:10;33.90;;;18.10;;
78740;SDS011;68062;48.726;9.370;2023-03-04T05:22:45;26.50;;;16.83;;
78740;SDS011;68062;48.726;9.370;2023-03-04T05:25:33;30.53;;;18.87;;
78740;SDS011;68062;48.726;9.370;2023-03-04T05:28:18;33.40;;;19.87;;
78740;SDS011;68062;48.726;9.370;2023-03-04T05:30:49;31.03;;;17.30;;
78740;SDS011;68062;48.726;9.370;2023-03-04T05:36:15;27.30;;;16.83;;
78740;SDS011;68062;48.726;9.370;2023-03-04T05:38:54;30.10;;;17.47;;
78740;SDS011;68062;48.726;9.370;2023-03-04T05:41:24;32.00;;;17.87;;
78740;SDS011;68062;48.726;9.370;2023-03-04T05:43:51;30.37;;;16.87;;
78740;SDS011;68062;48.726;9.370;2023-03-04T05:46:26;26.27;;;15.93;;
78740;SDS011;68062;48.726;9.370;2023-03-04T05:49:06;33.27;;;18.07;;
78740;SDS011;68062;48.726;9.370;2023-03-04T05:51:39;28.83;;;18.80;;
78740;SDS011;68062;48.726;9.370;2023-03-04T05:54:15;25.50;;;17.40;;
78740;SDS011;68062;48.726;9.370;2023-03-04T05:56:42;28.60;;;17.70;;
78740;SDS011;68062;48.726;9.370;2023-03-04T05:59:43;29.38;;;17.10;;
78740;SDS011;68062;48.726;9.370;2023-03-04T06:02:14;32.77;;;17.07;;
78740;SDS011;68062;48.726;9.370;2023-03-04T06:04:54;34.43;;;18.90;;
78740;SDS011;68062;48.726;9.370;2023-03-04T06:07:28;23.67;;;16.77;;
78740;SDS011;68062;48.726;9.370;2023-03-04T06:10:07;35.00;;;19.40;;
78740;SDS011;68062;48.726;9.370;2023-03-04T06:12:48;29.23;;;16.10;;
78740;SDS011;68062;48.726;9.370;2023-03-04T06:15:44;32.63;;;17.60;;
78740;SDS011;68062;48.726;9.370;2023-03-04T06:20:15;25.53;;;17.40;;
78740;SDS011;68062;48.726;9.370;2023-03-04T06:22:01;32.57;;;17.50;;
78740;SDS011;68062;48.726;9.370;2023-03-04T06:24:28;26.27;;;16.17;;
78740;SDS011;68062;48.726;9.370;2023-03-04T06:29:46;29.10;;;15.70;;
78740;SDS011;68062;48.726;9.370;2023-03-04T06:32:17;32.73;;;18.57;;
78740;SDS011;68062;48.726;9.370;2023-03-04T06:35:11;30.50;;;18.40;;
78740;SDS011;68062;48.726;9.370;2023-03-04T06:37:41;28.53;;;18.00;;
78740;SDS011;68062;48.726;9.370;2023-03-04T06:40:41;28.30;;;16.40;;
78740;SDS011;68062;48.726;9.370;2023-03-04T06:46:38;23.50;;;15.30;;
78740;SDS011;68062;48.726;9.370;2023-03-04T06:49:17;32.47;;;17.57;;
78740;SDS011;68062;48.726;9.370;2023-03-04T06:55:15;32.67;;;18.50;;
78740;SDS011;68062;48.726;9.370;2023-03-04T06:57:49;28.53;;;16.23;;
78740;SDS011;68062;48.726;9.370;2023-03-04T07:03:43;28.67;;;18.67;;
78740;SDS011;68062;48.726;9.370;2023-03-04T07:06:42;28.60;;;16.90;;
78740;SDS011;68062;48.726;9.370;2023-03-04T07:09:23;27.63;;;15.90;;
78740;SDS011;68062;48.726;9.370;2023-03-04T07:18:11;30.47;;;17.07;;
78740;SDS011;68062;48.726;9.370;2023-03-04T07:21:07;37.37;;;18.73;;
78740;SDS011;68062;48.726;9.370;2023-03-04T07:23:41;31.77;;;17.97;;
78740;SDS011;68062;48.726;9.370;2023-03-04T07:26:08;33.40;;;17.37;;
78740;SDS011;68062;48.726;9.370;2023-03-04T07:28:36;35.03;;;19.20;;
78740;SDS011;68062;48.726;9.370;2023-03-04T07:31:07;33.77;;;19.17;;
78740;SDS011;68062;48.726;9.370;2023-03-04T07:33:35;38.37;;;18.53;;
78740;SDS011;68062;48.726;9.370;2023-03-04T07:36:02;34.77;;;20.43;;
78740;SDS011;68062;48.726;9.370;2023-03-04T07:38:28;34.83;;;19.13;;
78740;SDS011;68062;48.726;9.370;2023-03-04T07:40:55;31.20;;;18.33;;
78740;SDS011;68062;48.726;9.370;2023-03-04T07:43:24;40.53;;;20.50;;
78740;SDS011;68062;48.726;9.370;2023-03-04T07:45:53;42.47;;;21.23;;
78740;SDS011;68062;48.726;9.370;2023-03-04T07:48:24;37.47;;;21.93;;
78740;SDS011;68062;48.726;9.370;2023-03-04T07:51:04;39.10;;;21.17;;
78740;SDS011;68062;48.726;9.370;2023-03-04T07:53:34;30.20;;;19.03;;
78740;SDS011;68062;48.726;9.370;2023-03-04T07:56:05;31.53;;;18.53;;
78740;SDS011;68062;48.726;9.370;2023-03-04T07:58:34;35.13;;;19.60;;
78740;SDS011;68062;48.726;9.370;2023-03-04T08:01:09;33.33;;;17.37;;
78740;SDS011;68062;48.726;9.370;2023-03-04T08:03:36;35.83;;;17.20;;
78740;SDS011;68062;48.726;9.370;2023-03-04T08:06:04;33.23;;;17.47;;
78740;SDS011;68062;48.726;9.370;2023-03-04T08:08:32;30.07;;;14.23;;
78740;SDS011;68062;48.726;9.370;2023-03-04T08:10:59;32.57;;;17.60;;
78740;SDS011;68062;48.726;9.370;2023-03-04T08:13:25;27.50;;;13.83;;
78740;SDS011;68062;48.726;9.370;2023-03-04T08:15:54;26.30;;;14.13;;
78740;SDS011;68062;48.726;9.370;2023-03-04T08:18:23;28.23;;;15.50;;
78740;SDS011;68062;48.726;9.370;2023-03-04T08:20:49;23.70;;;14.10;;
78740;SDS011;68062;48.726;9.370;2023-03-04T08:23:18;22.83;;;13.50;;
78740;SDS011;68062;48.726;9.370;2023-03-04T08:25:52;31.33;;;16.43;;
78740;SDS011;68062;48.726;9.370;2023-03-04T08:28:20;30.03;;;16.10;;
78740;SDS011;68062;48.726;9.370;2023-03-04T08:30:57;29.43;;;15.67;;
78740;SDS011;68062;48.726;9.370;2023-03-04T08:33:25;21.70;;;12.37;;
78740;SDS011;68062;48.726;9.370;2023-03-04T08:35:52;26.33;;;14.83;;
78740;SDS011;68062;48.726;9.370;2023-03-04T08:38:19;30.57;;;14.53;;
78740;SDS011;68062;48.726;9.370;2023-03-04T08:40:51;35.70;;;16.27;;
78740;SDS011;68062;48.726;9.370;2023-03-04T08:43:18;35.97;;;16.03;;
78740;SDS011;68062;48.726;9.370;2023-03-04T08:45:46;25.40;;;13.80;;
78740;SDS011;68062;48.726;9.370;2023-03-04T08:48:12;28.10;;;14.17;;
78740;SDS011;68062;48.726;9.370;2023-03-04T08:50:41;31.93;;;15.87;;
78740;SDS011;68062;48.726;9.370;2023-03-04T08:53:08;23.47;;;14.80;;
78740;SDS011;68062;48.726;9.370;2023-03-04T08:55:36;25.77;;;14.27;;
78740;SDS011;68062;48.726;9.370;2023-03-04T08:58:03;28.97;;;14.83;;
78740;SDS011;68062;48.726;9.370;2023-03-04T09:00:29;24.47;;;12.80;;
78740;SDS011;68062;48.726;9.370;2023-03-04T09:02:57;24.63;;;12.10;;
78740;SDS011;68062;48.726;9.370;2023-03-04T09:05:23;27.60;;;13.17;;
78740;SDS011;68062;48.726;9.370;2023-03-04T09:07:51;22.90;;;12.97;;
78740;SDS011;68062;48.726;9.370;2023-03-04T09:10:19;24.80;;;12.37;;
78740;SDS011;68062;48.726;9.370;2023-03-04T09:12:45;21.03;;;11.23;;
78740;SDS011;68062;48.726;9.370;2023-03-04T09:15:12;29.23;;;13.67;;
78740;SDS011;68062;48.726;9.370;2023-03-04T09:17:39;22.87;;;11.90;;
78740;SDS011;68062;48.726;9.370;2023-03-04T09:20:08;22.40;;;10.90;;
78740;SDS011;68062;48.726;9.370;2023-03-04T09:22:37;28.90;;;15.60;;
78740;SDS011;68062;48.726;9.370;2023-03-04T09:25:06;26.43;;;15.20;;
78740;SDS011;68062;48.726;9.370;2023-03-04T09:27:34;21.93;;;14.07;;
78740;SDS011;68062;48.726;9.370;2023-03-04T09:30:00;21.37;;;12.17;;
78740;SDS011;68062;48.726;9.370;2023-03-04T09:32:27;22.53;;;13.50;;
78740;SDS011;68062;48.726;9.370;2023-03-04T09:34:53;21.53;;;12.73;;
78740;SDS011;68062;48.726;9.370;2023-03-04T09:37:20;25.03;;;11.47;;
78740;SDS011;68062;48.726;9.370;2023-03-04T09:39:46;23.67;;;12.43;;
78740;SDS011;68062;48.726;9.370;2023-03-04T09:42:16;26.07;;;14.57;;
78740;SDS011;68062;48.726;9.370;2023-03-04T09:44:50;26.20;;;14.50;;
78740;SDS011;68062;48.726;9.370;2023-03-04T09:47:18;28.60;;;13.53;;
78740;SDS011;68062;48.726;9.370;2023-03-04T09:49:47;25.23;;;12.57;;
78740;SDS011;68062;48.726;9.370;2023-03-04T09:52:22;18.07;;;10.90;;
78740;SDS011;68062;48.726;9.370;2023-03-04T09:55:00;32.40;;;14.33;;
78740;SDS011;68062;48.726;9.370;2023-03-04T09:57:36;23.03;;;12.30;;
78740;SDS011;68062;48.726;9.370;2023-03-04T10:00:11;31.27;;;14.80;;
78740;SDS011;68062;48.726;9.370;2023-03-04T10:02:45;25.27;;;12.40;;
78740;SDS011;68062;48.726;9.370;2023-03-04T10:05:27;26.10;;;12.87;;
78740;SDS011;68062;48.726;9.370;2023-03-04T10:07:57;26.80;;;13.70;;
78740;SDS011;68062;48.726;9.370;2023-03-04T10:10:26;25.43;;;11.23;;
78740;SDS011;68062;48.726;9.370;2023-03-04T10:12:58;26.10;;;13.20;;
78740;SDS011;68062;48.726;9.370;2023-03-04T10:15:28;26.07;;;12.37;;
78740;SDS011;68062;48.726;9.370;2023-03-04T10:18:00;24.33;;;12.90;;
78740;SDS011;68062;48.726;9.370;2023-03-04T10:20:34;20.70;;;11.87;;
78740;SDS011;68062;48.726;9.370;2023-03-04T10:23:09;26.23;;;14.00;;
78740;SDS011;68062;48.726;9.370;2023-03-04T10:25:44;21.43;;;13.00;;
78740;SDS011;68062;48.726;9.370;2023-03-04T10:28:14;33.00;;;15.47;;
78740;SDS011;68062;48.726;9.370;2023-03-04T10:30:45;28.67;;;15.30;;
78740;SDS011;68062;48.726;9.370;2023-03-04T10:33:18;25.87;;;15.90;;
78740;SDS011;68062;48.726;9.370;2023-03-04T10:35:47;31.07;;;15.30;;
78740;SDS011;68062;48.726;9.370;2023-03-04T10:38:18;26.73;;;14.93;;
78740;SDS011;68062;48.726;9.370;2023-03-04T10:40:46;32.50;;;15.60;;
78740;SDS011;68062;48.726;9.370;2023-03-04T10:43:15;29.20;;;15.87;;
78740;SDS011;68062;48.726;9.370;2023-03-04T10:45:43;29.17;;;13.60;;
78740;SDS011;68062;48.726;9.370;2023-03-04T10:48:17;25.93;;;15.93;;
78740;SDS011;68062;48.726;9.370;2023-03-04T10:50:46;31.00;;;15.60;;
78740;SDS011;68062;48.726;9.370;2023-03-04T10:53:24;33.07;;;16.17;;
78740;SDS011;68062;48.726;9.370;2023-03-04T10:55:57;24.50;;;13.53;;
78740;SDS011;68062;48.726;9.370;2023-03-04T10:58:25;23.77;;;14.00;;
78740;SDS011;68062;48.726;9.370;2023-03-04T11:00:59;28.87;;;14.60;;
78740;SDS011;68062;48.726;9.370;2023-03-04T11:03:28;26.13;;;14.20;;
78740;SDS011;68062;48.726;9.370;2023-03-04T11:06:07;26.50;;;14.57;;
78740;SDS011;68062;48.726;9.370;2023-03-04T11:08:38;29.23;;;14.90;;
78740;SDS011;68062;48.726;9.370;2023-03-04T11:11:19;34.67;;;16.00;;
78740;SDS011;68062;48.726;9.370;2023-03-04T11:13:50;28.47;;;15.73;;
78740;SDS011;68062;48.726;9.370;2023-03-04T11:16:23;23.90;;;15.67;;
78740;SDS011;68062;48.726;9.370;2023-03-04T11:18:52;34.23;;;17.27;;
78740;SDS011;68062;48.726;9.370;2023-03-04T11:21:21;26.63;;;16.60;;
78740;SDS011;68062;48.726;9.370;2023-03-04T11:23:49;31.00;;;16.50;;
78740;SDS011;68062;48.726;9.370;2023-03-04T11:26:22;29.53;;;15.43;;
78740;SDS011;68062;48.726;9.370;2023-03-04T11:28:58;25.73;;;14.13;;
78740;SDS011;68062;48.726;9.370;2023-03-04T11:31:29;30.60;;;16.93;;
78740;SDS011;68062;48.726;9.370;2023-03-04T11:34:00;28.57;;;16.50;;
78740;SDS011;68062;48.726;9.370;2023-03-04T11:36:34;29.23;;;16.67;;
78740;SDS011;68062;48.726;9.370;2023-03-04T11:39:16;28.30;;;16.37;;
78740;SDS011;68062;48.726;9.370;2023-03-04T11:41:50;28.40;;;16.67;;
78740;SDS011;68062;48.726;9.370;2023-03-04T11:44:23;26.53;;;16.50;;
78740;SDS011;68062;48.726;9.370;2023-03-04T11:46:54;36.23;;;17.00;;
78740;SDS011;68062;48.726;9.370;2023-03-04T11:52:47;32.77;;;17.10;;
78740;SDS011;68062;48.726;9.370;2023-03-04T11:55:32;26.83;;;15.23;;
78740;SDS011;68062;48.726;9.370;2023-03-04T11:58:14;31.80;;;17.13;;
78740;SDS011;68062;48.726;9.370;2023-03-04T12:00:56;29.33;;;15.87;;
78740;SDS011;68062;48.726;9.370;2023-03-04T12:03:36;28.30;;;16.97;;
78740;SDS011;68062;48.726;9.370;2023-03-04T12:06:11;30.70;;;16.70;;
78740;SDS011;68062;48.726;9.370;2023-03-04T12:08:53;28.97;;;15.47;;
78740;SDS011;68062;48.726;9.370;2023-03-04T12:11:36;30.33;;;17.43;;
78740;SDS011;68062;48.726;9.370;2023-03-04T12:14:13;34.57;;;18.70;;
78740;SDS011;68062;48.726;9.370;2023-03-04T12:16:57;33.63;;;17.27;;
78740;SDS011;68062;48.726;9.370;2023-03-04T12:19:47;34.87;;;19.53;;
78740;SDS011;68062;48.726;9.370;2023-03-04T12:22:29;33.17;;;16.93;;
78740;SDS011;68062;48.726;9.370;2023-03-04T12:25:18;30.50;;;19.40;;
78740;SDS011;68062;48.726;9.370;2023-03-04T12:27:56;32.40;;;19.37;;
78740;SDS011;68062;48.726;9.370;2023-03-04T12:30:39;34.40;;;18.00;;
78740;SDS011;68062;48.726;9.370;2023-03-04T12:33:19;35.10;;;18.33;;
78740;SDS011;68062;48.726;9.370;2023-03-04T12:36:00;37.30;;;19.33;;
78740;SDS011;68062;48.726;9.370;2023-03-04T12:38:48;36.43;;;18.97;;
78740;SDS011;68062;48.726;9.370;2023-03-04T12:41:26;37.80;;;17.73;;
78740;SDS011;68062;48.726;9.370;2023-03-04T12:44:04;38.17;;;20.03;;
78740;SDS011;68062;48.726;9.370;2023-03-04T12:46:56;36.43;;;19.83;;
78740;SDS011;68062;48.726;9.370;2023-03-04T12:52:48;36.20;;;18.70;;
78740;SDS011;68062;48.726;9.370;2023-03-04T12:55:22;38.47;;;19.47;;
78740;SDS011;68062;48.726;9.370;2023-03-04T12:57:55;38.80;;;18.97;;
78740;SDS011;68062;48.726;9.370;2023-03-04T13:00:25;42.37;;;22.17;;
78740;SDS011;68062;48.726;9.370;2023-03-04T13:03:02;43.40;;;20.67;;
78740;SDS011;68062;48.726;9.370;2023-03-04T13:05:54;42.30;;;20.73;;
78740;SDS011;68062;48.726;9.370;2023-03-04T13:08:33;46.73;;;20.90;;
78740;SDS011;68062;48.726;9.370;2023-03-04T13:14:22;38.00;;;21.07;;
78740;SDS011;68062;48.726;9.370;2023-03-04T13:17:01;46.60;;;21.10;;
78740;SDS011;68062;48.726;9.370;2023-03-04T13:19:55;36.23;;;20.47;;
78740;SDS011;68062;48.726;9.370;2023-03-04T13:22:29;41.43;;;20.83;;
78740;SDS011;68062;48.726;9.370;2023-03-04T13:28:21;44.37;;;22.13;;
78740;SDS011;68062;48.726;9.370;2023-03-04T13:33:55;38.33;;;22.20;;
78740;SDS011;68062;48.726;9.370;2023-03-04T13:36:51;48.50;;;23.27;;
78740;SDS011;68062;48.726;9.370;2023-03-04T13:39:29;46.70;;;23.80;;
78740;SDS011;68062;48.726;9.370;2023-03-04T13:45:31;42.10;;;20.00;;
78740;SDS011;68062;48.726;9.370;2023-03-04T13:48:00;44.93;;;21.87;;
78740;SDS011;68062;48.726;9.370;2023-03-04T13:50:35;39.70;;;22.63;;
78740;SDS011;68062;48.726;9.370;2023-03-04T13:59:12;47.40;;;22.53;;
78740;SDS011;68062;48.726;9.370;2023-03-04T14:01:51;37.80;;;20.17;;
78740;SDS011;68062;48.726;9.370;2023-03-04T14:04:26;45.17;;;22.23;;
78740;SDS011;68062;48.726;9.370;2023-03-04T14:06:56;48.43;;;21.87;;
78740;SDS011;68062;48.726;9.370;2023-03-04T14:09:28;40.03;;;21.37;;
78740;SDS011;68062;48.726;9.370;2023-03-04T14:11:59;41.50;;;21.50;;
78740;SDS011;68062;48.726;9.370;2023-03-04T14:14:31;37.70;;;18.80;;
78740;SDS011;68062;48.726;9.370;2023-03-04T14:17:16;36.00;;;19.20;;
78740;SDS011;68062;48.726;9.370;2023-03-04T14:19:52;37.53;;;19.50;;
78740;SDS011;68062;48.726;9.370;2023-03-04T14:22:23;33.57;;;19.80;;
78740;SDS011;68062;48.726;9.370;2023-03-04T14:24:56;32.60;;;19.70;;
78740;SDS011;68062;48.726;9.370;2023-03-04T14:27:42;34.83;;;17.73;;
78740;SDS011;68062;48.726;9.370;2023-03-04T14:30:24;32.53;;;19.90;;
78740;SDS011;68062;48.726;9.370;2023-03-04T14:32:53;28.47;;;15.83;;
78740;SDS011;68062;48.726;9.370;2023-03-04T14:35:23;29.10;;;16.40;;
78740;SDS011;68062;48.726;9.370;2023-03-04T14:37:53;31.33;;;16.17;;
78740;SDS011;68062;48.726;9.370;2023-03-04T14:40:25;30.20;;;15.30;;
78740;SDS011;68062;48.726;9.370;2023-03-04T14:42:57;32.17;;;14.97;;
78740;SDS011;68062;48.726;9.370;2023-03-04T14:45:30;27.23;;;16.37;;
78740;SDS011;68062;48.726;9.370;2023-03-04T14:48:02;26.67;;;15.10;;
78740;SDS011;68062;48.726;9.370;2023-03-04T14:50:31;23.97;;;14.23;;
78740;SDS011;68062;48.726;9.370;2023-03-04T14:55:56;40.77;;;15.07;;
78740;SDS011;68062;48.726;9.370;2023-03-04T14:58:26;26.60;;;14.50;;
78740;SDS011;68062;48.726;9.370;2023-03-04T15:01:04;21.13;;;13.47;;
78740;SDS011;68062;48.726;9.370;2023-03-04T15:03:33;34.33;;;13.97;;
78740;SDS011;68062;48.726;9.370;2023-03-04T15:06:07;28.63;;;14.60;;
78740;SDS011;68062;48.726;9.370;2023-03-04T15:08:43;26.50;;;13.03;;
78740;SDS011;68062;48.726;9.370;2023-03-04T15:11:13;31.13;;;16.00;;
78740;SDS011;68062;48.726;9.370;2023-03-04T15:13:49;27.73;;;15.00;;
78740;SDS011;68062;48.726;9.370;2023-03-04T15:16:18;28.13;;;15.03;;
78740;SDS011;68062;48.726;9.370;2023-03-04T15:18:55;25.53;;;15.37;;
78740;SDS011;68062;48.726;9.370;2023-03-04T15:21:28;27.60;;;13.70;;
78740;SDS011;68062;48.726;9.370;2023-03-04T15:23:57;28.60;;;15.40;;
78740;SDS011;68062;48.726;9.370;2023-03-04T15:26:38;27.87;;;14.77;;
78740;SDS011;68062;48.726;9.370;2023-03-04T15:29:11;25.93;;;16.00;;
78740;SDS011;68062;48.726;9.370;2023-03-04T15:31:39;25.67;;;14.80;;
78740;SDS011;68062;48.726;9.370;2023-03-04T15:34:27;29.77;;;14.60;;
78740;SDS011;68062;48.726;9.370;2023-03-04T15:36:56;28.87;;;15.17;;
78740;SDS011;68062;48.726;9.370;2023-03-04T15:39:24;28.60;;;16.77;;
78740;SDS011;68062;48.726;9.370;2023-03-04T15:41:52;30.90;;;17.00;;